CLVO2: Canadian River, Calvin, OKla

Data processed at Thu Jan 04 2018 23:19


All information presented herein is the property of the government of the United States of America and may be revised or deleted at any time without prior notice.
Dissemination of this information without the expressed written consent of the Public Affairs Office, Tulsa District U.S. Army Corps of Engineers is strictly prohibited.
These data are gathered electronically and, as presented, have not undergone any form of quality control. These data are not guaranteed to be valid or correct.
Go to home page.
Go to station list.

Upstream stations:

Downstream station:
Previous Day
Next Day
Current Day
    
SHEF ID:       CLVO2     Canadian River at Calvin, OK
STATION TYPE:  

               PRECIP     STAGE  STAGE(2)  RIV-FLOW  BAT-LOAD
                   in        ft        ft       cfs      volt
              Ccp-Rev   Ccp-Rev   Ccp-Rev   Ccp-Rev   Ccp-Rev
(US/Central)
01/02 00:00      0.00      5.65      ----       105     12.09
01/02 01:00      0.00      5.52      ----        83     12.09
01/02 02:00      0.00      5.59      ----        94     12.09
01/02 03:00      0.00      5.48      ----        77     12.01
01/02 04:00      0.00      5.58      ----        93     12.01
01/02 05:00      0.00      5.52      ----        83     11.93
01/02 06:00      0.00      5.58      ----        93     11.93
01/02 07:00      0.00      5.51      ----        82     11.93
01/02 08:00      0.00      5.46      ----        75     11.93
01/02 09:00      0.00      5.54      ----        86     11.93
01/02 10:00      0.00      5.48      ----        77     12.01
01/02 11:00      0.00      5.41      ----        68     12.17
01/02 12:00      0.00      5.66      ----       107     12.33
01/02 13:00      0.00      5.63      ----       101     12.41
01/02 14:00      0.00      5.65      ----       105     12.33
01/02 15:00      0.00      5.66      ----       107     12.41
01/02 16:00      0.00      5.69      ----       113     12.25
01/02 17:00      0.00      5.82      ----       141     12.17
01/02 18:00      0.00      5.67      ----       109     12.01
01/02 19:00      0.00      5.63      ----       101     11.93
01/02 20:00      0.00      5.65      ----       105     11.93
01/02 21:00      0.00      5.65      ----       105     11.93
01/02 22:00      0.00      5.61      ----        98     11.86
01/02 23:00      0.00      5.61      ----        98     11.93